Time;durP1;ratioP1;P1;durP2;ratioP2;P2;SDS_P1;SDS_P2;PMS_P1;PMS_P2;Temp;Humidity;BMP_temperature;BMP_pressure;BME280_temperature;BME280_humidity;BME280_pressure;Samples;Min_cycle;Max_cycle;Signal;HPM_P1;HPM_P2
2022/06/05 00:00:13;;;;;;;5.43;5.13;;;;;;;;;;5070537;28;20280;-58
2022/06/05 00:02:47;;;;;;;5.63;5.22;;;;;;;;;;5097977;28;20274;-59
2022/06/05 00:05:16;;;;;;;5.20;4.90;;;;;;;;;;5087781;28;20213;-59
2022/06/05 00:07:48;;;;;;;5.47;5.07;;;;;;;;;;5090200;28;20699;-58
2022/06/05 00:10:19;;;;;;;5.28;5.07;;;;;;;;;;5080632;28;20198;-58
2022/06/05 00:12:52;;;;;;;5.68;5.22;;;;;;;;;;5097954;28;20683;-59
2022/06/05 00:15:20;;;;;;;5.82;5.45;;;;;;;;;;5084822;28;20210;-58
2022/06/05 00:17:48;;;;;;;6.72;5.18;;;;;;;;;;5084523;28;20210;-58
2022/06/05 00:20:15;;;;;;;5.43;5.13;;;;;;;;;;5077563;28;20704;-58
2022/06/05 00:22:51;;;;;;;5.63;5.30;;;;;;;;;;5076357;28;20682;-58
2022/06/05 00:25:18;;;;;;;5.53;5.03;;;;;;;;;;5090236;28;20209;-58
2022/06/05 00:27:49;;;;;;;5.72;5.22;;;;;;;;;;5089952;28;20681;-58
2022/06/05 00:30:21;;;;;;;5.80;5.25;;;;;;;;;;5074154;28;20207;-59
2022/06/05 00:32:51;;;;;;;5.65;5.25;;;;;;;;;;5089012;28;20668;-58
2022/06/05 00:35:21;;;;;;;5.90;5.60;;;;;;;;;;5104419;28;20206;-59
2022/06/05 00:37:53;;;;;;;5.43;5.18;;;;;;;;;;5099249;28;20216;-58
2022/06/05 00:40:29;;;;;;;5.82;5.53;;;;;;;;;;5080058;28;20233;-58
2022/06/05 00:42:58;;;;;;;5.70;5.40;;;;;;;;;;5069516;28;20202;-58
2022/06/05 00:45:28;;;;;;;5.85;5.45;;;;;;;;;;5091167;28;20205;-58
2022/06/05 00:47:56;;;;;;;5.78;5.47;;;;;;;;;;5102670;28;20711;-58
2022/06/05 00:50:25;;;;;;;5.45;5.15;;;;;;;;;;5067974;28;20199;-58
2022/06/05 00:52:55;;;;;;;5.95;5.50;;;;;;;;;;5083875;28;21070;-59
2022/06/05 00:55:22;;;;;;;5.63;5.32;;;;;;;;;;5089340;28;20212;-59
2022/06/05 00:57:56;;;;;;;5.50;5.20;;;;;;;;;;5075219;28;20202;-58
2022/06/05 01:00:24;;;;;;;5.25;4.95;;;;;;;;;;5089045;28;20229;-59
2022/06/05 01:02:53;;;;;;;5.63;5.28;;;;;;;;;;5096989;28;20311;-59
2022/06/05 01:05:22;;;;;;;5.13;4.72;;;;;;;;;;5088491;28;20201;-59
2022/06/05 01:07:52;;;;;;;5.22;4.82;;;;;;;;;;5077313;28;20750;-59
2022/06/05 01:10:20;;;;;;;5.07;4.75;;;;;;;;;;5080288;28;20660;-58
2022/06/05 01:12:53;;;;;;;5.75;5.45;;;;;;;;;;5085196;28;20460;-59
2022/06/05 01:15:24;;;;;;;5.50;5.20;;;;;;;;;;5075226;28;20643;-58
2022/06/05 01:18:09;;;;;;;5.47;5.18;;;;;;;;;;5087962;28;20734;-59
2022/06/05 01:20:45;;;;;;;5.68;5.38;;;;;;;;;;5097733;28;20719;-58
2022/06/05 01:23:27;;;;;;;5.78;5.30;;;;;;;;;;5084926;28;20205;-58
2022/06/05 01:26:00;;;;;;;5.32;5.10;;;;;;;;;;5083736;28;21016;-58
2022/06/05 01:28:30;;;;;;;6.15;5.65;;;;;;;;;;5081968;28;20676;-58
2022/06/05 01:31:00;;;;;;;6.22;5.80;;;;;;;;;;5083171;28;20286;-58
2022/06/05 01:33:29;;;;;;;5.18;4.90;;;;;;;;;;5073802;28;20207;-58
2022/06/05 01:36:03;;;;;;;5.88;5.57;;;;;;;;;;5064140;28;20231;-58
2022/06/05 01:38:33;;;;;;;5.72;5.30;;;;;;;;;;5085277;28;20587;-58
2022/06/05 01:41:04;;;;;;;5.28;4.93;;;;;;;;;;5086518;28;20233;-58
2022/06/05 01:43:34;;;;;;;5.78;5.20;;;;;;;;;;5070766;28;20211;-58
2022/06/05 01:46:04;;;;;;;5.35;4.95;;;;;;;;;;5077604;28;20304;-58
2022/06/05 01:48:35;;;;;;;5.47;5.18;;;;;;;;;;5103287;28;20229;-58
2022/06/05 01:51:06;;;;;;;5.88;5.47;;;;;;;;;;5102790;28;20202;-58
2022/06/05 01:53:36;;;;;;;5.63;5.22;;;;;;;;;;5102540;28;20285;-58
2022/06/05 01:56:07;;;;;;;6.00;5.55;;;;;;;;;;5093063;28;20286;-58
2022/06/05 01:58:37;;;;;;;6.07;5.57;;;;;;;;;;5092632;28;20221;-58
2022/06/05 02:01:06;;;;;;;5.60;5.28;;;;;;;;;;5092229;28;20647;-59
2022/06/05 02:03:35;;;;;;;5.65;5.40;;;;;;;;;;5103494;28;20880;-58
2022/06/05 02:06:04;;;;;;;5.22;4.93;;;;;;;;;;5094179;28;20206;-58
2022/06/05 02:08:34;;;;;;;5.78;5.30;;;;;;;;;;5085476;28;20198;-58
2022/06/05 02:11:03;;;;;;;5.30;5.00;;;;;;;;;;5088259;28;20213;-58
2022/06/05 02:13:32;;;;;;;5.90;5.53;;;;;;;;;;5101981;28;20252;-59
2022/06/05 02:15:59;;;;;;;5.30;5.07;;;;;;;;;;5098553;28;20213;-58
2022/06/05 02:18:26;;;;;;;5.88;5.47;;;;;;;;;;5087660;28;20210;-58
2022/06/05 02:20:54;;;;;;;5.82;5.43;;;;;;;;;;5095157;28;20336;-59
2022/06/05 02:23:22;;;;;;;5.45;5.15;;;;;;;;;;5107517;28;20214;-58
2022/06/05 02:25:50;;;;;;;6.05;5.68;;;;;;;;;;5101171;28;20206;-58
2022/06/05 02:28:18;;;;;;;5.57;5.28;;;;;;;;;;5087318;28;20214;-58
2022/06/05 02:30:49;;;;;;;5.78;5.38;;;;;;;;;;5092653;28;20983;-59
2022/06/05 02:33:19;;;;;;;5.90;5.28;;;;;;;;;;5105958;28;20210;-58
2022/06/05 02:35:52;;;;;;;5.30;5.00;;;;;;;;;;5105895;28;20245;-58
2022/06/05 02:38:24;;;;;;;5.45;5.15;;;;;;;;;;5106758;28;20217;-58
2022/06/05 02:40:54;;;;;;;5.63;5.25;;;;;;;;;;5079275;28;20601;-58
2022/06/05 02:43:22;;;;;;;5.07;4.78;;;;;;;;;;5087915;28;20267;-58
2022/06/05 02:45:55;;;;;;;5.75;5.30;;;;;;;;;;5100685;28;20583;-58
2022/06/05 02:48:27;;;;;;;5.55;5.25;;;;;;;;;;5106303;28;20549;-57
2022/06/05 02:50:56;;;;;;;5.40;5.10;;;;;;;;;;5087780;28;20227;-58
2022/06/05 02:53:23;;;;;;;5.13;4.82;;;;;;;;;;5110900;28;20312;-58
2022/06/05 02:55:50;;;;;;;5.40;5.10;;;;;;;;;;5103151;28;20217;-58
2022/06/05 02:58:17;;;;;;;5.50;5.07;;;;;;;;;;5101350;28;20240;-58
2022/06/05 03:03:27;;;;;;;5.47;5.05;;;;;;;;;;5092138;28;20224;-59
2022/06/05 03:03:32;;;;;;;5.60;5.20;;;;;;;;;;5094283;28;20419;-58
2022/06/05 03:06:03;;;;;;;5.35;4.93;;;;;;;;;;5088539;28;20656;-58
2022/06/05 03:08:30;;;;;;;5.05;4.75;;;;;;;;;;5090085;28;20599;-58
2022/06/05 03:10:57;;;;;;;5.50;5.20;;;;;;;;;;5091612;28;20576;-58
2022/06/05 03:13:24;;;;;;;5.10;4.68;;;;;;;;;;5089642;28;20202;-58
2022/06/05 03:15:51;;;;;;;5.55;5.20;;;;;;;;;;5093263;28;20268;-58
2022/06/05 03:18:18;;;;;;;4.90;4.70;;;;;;;;;;5089017;28;20607;-58
2022/06/05 03:20:47;;;;;;;4.93;4.63;;;;;;;;;;5089132;28;20665;-59
2022/06/05 03:23:14;;;;;;;5.65;5.28;;;;;;;;;;5088877;28;20653;-59
2022/06/05 03:25:42;;;;;;;4.75;4.55;;;;;;;;;;5087989;28;20314;-59
2022/06/05 03:28:09;;;;;;;4.95;4.72;;;;;;;;;;5091282;28;20207;-59
2022/06/05 03:30:38;;;;;;;5.00;4.70;;;;;;;;;;5086209;28;20214;-60
2022/06/05 03:33:05;;;;;;;4.97;4.68;;;;;;;;;;5090054;28;20644;-59
2022/06/05 03:35:32;;;;;;;4.60;4.40;;;;;;;;;;5095462;28;20793;-59
2022/06/05 03:38:00;;;;;;;4.40;4.20;;;;;;;;;;5090641;28;20214;-59
2022/06/05 03:40:27;;;;;;;5.55;5.05;;;;;;;;;;5108825;28;20201;-59
2022/06/05 03:42:55;;;;;;;5.13;4.80;;;;;;;;;;5100303;28;20233;-59
2022/06/05 03:45:22;;;;;;;5.60;5.20;;;;;;;;;;5090819;28;20212;-59
2022/06/05 03:47:50;;;;;;;4.88;4.60;;;;;;;;;;5101419;28;20254;-59
2022/06/05 03:50:18;;;;;;;5.35;5.05;;;;;;;;;;5108323;28;20206;-59
2022/06/05 03:52:46;;;;;;;4.97;4.57;;;;;;;;;;5093183;28;20206;-59
2022/06/05 03:55:17;;;;;;;5.10;4.80;;;;;;;;;;5088957;28;20201;-59
2022/06/05 03:57:44;;;;;;;5.25;4.95;;;;;;;;;;5089946;28;20338;-59
2022/06/05 04:00:11;;;;;;;5.32;5.00;;;;;;;;;;5085145;28;20550;-59
2022/06/05 04:02:39;;;;;;;5.28;4.88;;;;;;;;;;5088995;28;20221;-59
2022/06/05 04:05:06;;;;;;;5.30;4.90;;;;;;;;;;5108995;28;20213;-59
2022/06/05 04:07:33;;;;;;;5.60;5.20;;;;;;;;;;5084344;28;20209;-59
2022/06/05 04:10:00;;;;;;;5.78;5.30;;;;;;;;;;5107969;28;20205;-59
2022/06/05 04:12:29;;;;;;;5.25;4.95;;;;;;;;;;5104400;28;20664;-59
2022/06/05 04:14:56;;;;;;;5.60;5.30;;;;;;;;;;5109324;28;20214;-59
2022/06/05 04:17:23;;;;;;;4.90;4.60;;;;;;;;;;5090005;28;20207;-59
2022/06/05 04:19:50;;;;;;;4.70;4.50;;;;;;;;;;5104272;28;20288;-58
2022/06/05 04:22:17;;;;;;;4.90;4.68;;;;;;;;;;5091291;28;20233;-59
2022/06/05 04:24:44;;;;;;;5.55;5.25;;;;;;;;;;5076846;28;20214;-59
2022/06/05 04:27:11;;;;;;;5.35;5.05;;;;;;;;;;5088585;28;20202;-59
2022/06/05 04:29:40;;;;;;;5.25;4.95;;;;;;;;;;5103742;28;20205;-59
2022/06/05 04:32:07;;;;;;;5.68;5.18;;;;;;;;;;5099848;28;20209;-59
2022/06/05 04:34:35;;;;;;;5.50;5.20;;;;;;;;;;5097038;28;20254;-59
2022/06/05 04:37:02;;;;;;;5.00;4.80;;;;;;;;;;5078315;28;20226;-58
2022/06/05 04:39:29;;;;;;;5.30;5.00;;;;;;;;;;5105751;28;20672;-59
2022/06/05 04:41:56;;;;;;;5.32;5.03;;;;;;;;;;5084345;28;20233;-59
2022/06/05 04:44:23;;;;;;;5.32;5.03;;;;;;;;;;5089308;28;20213;-59
2022/06/05 04:46:53;;;;;;;5.07;4.88;;;;;;;;;;5104419;28;20275;-59
2022/06/05 04:49:20;;;;;;;5.40;5.00;;;;;;;;;;5107329;28;20198;-59
2022/06/05 04:51:48;;;;;;;5.60;5.20;;;;;;;;;;5089077;28;20204;-59
2022/06/05 04:54:16;;;;;;;5.40;5.10;;;;;;;;;;5083859;28;20210;-59
2022/06/05 04:56:43;;;;;;;5.55;5.25;;;;;;;;;;5102668;28;20217;-58
2022/06/05 04:59:10;;;;;;;5.30;4.90;;;;;;;;;;5089285;28;20202;-58
2022/06/05 05:01:39;;;;;;;5.13;4.82;;;;;;;;;;5107923;28;20759;-58
2022/06/05 05:04:09;;;;;;;5.38;5.07;;;;;;;;;;5068366;28;20688;-58
2022/06/05 05:06:36;;;;;;;5.50;5.20;;;;;;;;;;5087459;28;20209;-58
2022/06/05 05:09:04;;;;;;;5.50;5.10;;;;;;;;;;5098209;28;20209;-58
2022/06/05 05:11:31;;;;;;;5.45;5.15;;;;;;;;;;5085683;28;20198;-58
2022/06/05 05:13:59;;;;;;;6.38;5.90;;;;;;;;;;5087521;28;20203;-58
2022/06/05 05:16:27;;;;;;;5.57;5.28;;;;;;;;;;5087909;28;20210;-58
2022/06/05 05:18:54;;;;;;;5.60;5.30;;;;;;;;;;5088446;28;20220;-57
2022/06/05 05:21:24;;;;;;;5.47;5.00;;;;;;;;;;5092689;28;20622;-58
2022/06/05 05:23:51;;;;;;;6.65;6.25;;;;;;;;;;5068122;28;20206;-58
2022/06/05 05:26:20;;;;;;;5.57;5.28;;;;;;;;;;5102391;28;20202;-58
2022/06/05 05:28:48;;;;;;;5.75;5.30;;;;;;;;;;5095389;28;20313;-57
2022/06/05 05:31:17;;;;;;;5.53;5.22;;;;;;;;;;5083457;28;20284;-57
2022/06/05 05:33:44;;;;;;;6.20;5.80;;;;;;;;;;5079313;28;20210;-58
2022/06/05 05:36:11;;;;;;;5.40;5.10;;;;;;;;;;5089747;28;20230;-58
2022/06/05 05:42:04;;;;;;;5.25;4.95;;;;;;;;;;5108660;28;20627;-58
2022/06/05 05:44:13;;;;;;;5.68;5.38;;;;;;;;;;5090419;28;20225;-58
2022/06/05 05:46:40;;;;;;;5.78;5.40;;;;;;;;;;5091506;28;20250;-58
2022/06/05 05:49:07;;;;;;;6.32;5.85;;;;;;;;;;5092291;28;20213;-58
2022/06/05 05:51:34;;;;;;;5.45;5.05;;;;;;;;;;5097434;28;20201;-58
2022/06/05 05:54:03;;;;;;;5.97;5.50;;;;;;;;;;5093195;28;20210;-58
2022/06/05 05:56:30;;;;;;;5.88;5.47;;;;;;;;;;5090336;28;20660;-58
2022/06/05 05:58:57;;;;;;;5.82;5.43;;;;;;;;;;5097634;28;20217;-58
2022/06/05 06:01:24;;;;;;;6.43;6.03;;;;;;;;;;5092133;28;20199;-58
2022/06/05 06:03:51;;;;;;;6.45;6.00;;;;;;;;;;5091309;28;20234;-58
2022/06/05 06:06:20;;;;;;;6.45;5.80;;;;;;;;;;5091407;28;20214;-58
2022/06/05 06:08:47;;;;;;;6.25;5.80;;;;;;;;;;5091824;28;20206;-58
2022/06/05 06:11:15;;;;;;;9.20;6.35;;;;;;;;;;5080500;28;20207;-58
2022/06/05 06:13:42;;;;;;;6.50;6.00;;;;;;;;;;5075718;28;20210;-58
2022/06/05 06:16:09;;;;;;;6.45;5.85;;;;;;;;;;5084067;28;20746;-58
2022/06/05 06:18:37;;;;;;;6.90;6.30;;;;;;;;;;5076552;28;20209;-58
2022/06/05 06:21:04;;;;;;;6.88;6.38;;;;;;;;;;5082974;28;20210;-58
2022/06/05 06:23:31;;;;;;;6.10;5.72;;;;;;;;;;5073374;28;20226;-58
2022/06/05 06:25:58;;;;;;;6.55;6.07;;;;;;;;;;5088504;28;20676;-58
2022/06/05 06:28:26;;;;;;;6.32;5.93;;;;;;;;;;5081294;28;20267;-57
2022/06/05 06:30:53;;;;;;;6.53;6.13;;;;;;;;;;5091122;28;20221;-60
2022/06/05 06:33:20;;;;;;;6.88;6.25;;;;;;;;;;5091388;28;20202;-60
2022/06/05 06:35:47;;;;;;;7.00;6.50;;;;;;;;;;5090498;28;20222;-60
2022/06/05 06:38:14;;;;;;;7.10;6.60;;;;;;;;;;5092849;28;20282;-60
2022/06/05 06:40:41;;;;;;;7.38;6.75;;;;;;;;;;5091010;28;20213;-60
2022/06/05 06:43:09;;;;;;;7.07;6.47;;;;;;;;;;5073279;28;20235;-61
2022/06/05 06:45:38;;;;;;;6.93;6.47;;;;;;;;;;5089903;28;20860;-62
2022/06/05 06:48:05;;;;;;;7.53;6.82;;;;;;;;;;5090727;28;20237;-60
2022/06/05 06:50:32;;;;;;;6.18;5.88;;;;;;;;;;5091241;28;20210;-60
2022/06/05 06:52:59;;;;;;;7.25;6.75;;;;;;;;;;5092367;28;20203;-59
2022/06/05 06:55:26;;;;;;;7.25;6.68;;;;;;;;;;5089728;28;20975;-59
2022/06/05 06:57:54;;;;;;;6.32;5.93;;;;;;;;;;5090879;28;20243;-60
2022/06/05 07:00:21;;;;;;;6.45;5.95;;;;;;;;;;5079252;28;20391;-60
2022/06/05 07:02:49;;;;;;;6.57;6.10;;;;;;;;;;5071516;28;20230;-59
2022/06/05 07:05:16;;;;;;;6.72;6.22;;;;;;;;;;5070551;28;20222;-60
2022/06/05 07:07:43;;;;;;;6.32;5.85;;;;;;;;;;5090157;28;20203;-60
2022/06/05 07:10:11;;;;;;;6.07;5.68;;;;;;;;;;5090578;28;20206;-60
2022/06/05 07:12:38;;;;;;;7.10;6.50;;;;;;;;;;5079247;28;20207;-60
2022/06/05 07:15:06;;;;;;;5.82;5.50;;;;;;;;;;5070353;28;20211;-60
2022/06/05 07:17:33;;;;;;;6.18;5.78;;;;;;;;;;5089167;28;20217;-60
2022/06/05 07:20:02;;;;;;;5.80;5.50;;;;;;;;;;5089852;28;20202;-60
2022/06/05 07:22:29;;;;;;;5.95;5.45;;;;;;;;;;5093013;28;20241;-60
2022/06/05 07:24:56;;;;;;;5.88;5.57;;;;;;;;;;5100632;28;20640;-60
2022/06/05 07:27:23;;;;;;;6.50;6.00;;;;;;;;;;5070804;28;20214;-60
2022/06/05 07:29:50;;;;;;;6.15;5.47;;;;;;;;;;5105697;28;20292;-60
2022/06/05 07:32:17;;;;;;;5.65;5.35;;;;;;;;;;5110005;28;20205;-60
2022/06/05 07:34:44;;;;;;;5.68;5.32;;;;;;;;;;5109574;28;20206;-60
2022/06/05 07:37:13;;;;;;;6.10;5.60;;;;;;;;;;5077671;28;20223;-60
2022/06/05 07:39:40;;;;;;;6.47;5.95;;;;;;;;;;5072359;28;20209;-60
2022/06/05 07:42:08;;;;;;;7.10;6.05;;;;;;;;;;5098494;28;20909;-60
2022/06/05 07:44:36;;;;;;;6.55;6.05;;;;;;;;;;5109564;28;20205;-60
2022/06/05 07:47:04;;;;;;;6.45;6.05;;;;;;;;;;5085723;28;20705;-60
2022/06/05 07:49:31;;;;;;;5.63;5.32;;;;;;;;;;5088709;28;20217;-60
2022/06/05 07:54:44;;;;;;;6.68;6.18;;;;;;;;;;5069122;28;20271;-60
2022/06/05 07:57:13;;;;;;;6.53;6.03;;;;;;;;;;5089107;28;20212;-60
2022/06/05 07:59:41;;;;;;;7.03;6.53;;;;;;;;;;5086764;28;20238;-59
2022/06/05 08:02:09;;;;;;;6.80;6.03;;;;;;;;;;5095544;28;20203;-60
2022/06/05 08:04:37;;;;;;;6.72;6.05;;;;;;;;;;5092078;28;20483;-58
2022/06/05 08:07:05;;;;;;;6.35;5.90;;;;;;;;;;5091404;28;20239;-58
2022/06/05 08:09:32;;;;;;;6.30;5.90;;;;;;;;;;5088481;28;20210;-58
2022/06/05 08:12:01;;;;;;;6.55;6.15;;;;;;;;;;5077001;28;20206;-58
2022/06/05 08:14:30;;;;;;;6.22;5.82;;;;;;;;;;5095051;28;20822;-58
2022/06/05 08:16:57;;;;;;;6.75;6.22;;;;;;;;;;5078489;28;20215;-58
2022/06/05 08:19:24;;;;;;;6.53;6.10;;;;;;;;;;5100766;28;20209;-60
2022/06/05 08:21:52;;;;;;;6.82;6.25;;;;;;;;;;5085689;28;20345;-60
2022/06/05 08:24:20;;;;;;;7.22;6.63;;;;;;;;;;5105355;28;20313;-60
2022/06/05 08:26:47;;;;;;;7.13;6.45;;;;;;;;;;5079861;28;20702;-61
2022/06/05 08:29:15;;;;;;;6.10;5.70;;;;;;;;;;5088311;28;20214;-61
2022/06/05 08:31:43;;;;;;;6.85;6.25;;;;;;;;;;5089157;28;20206;-61
2022/06/05 08:34:12;;;;;;;6.35;5.93;;;;;;;;;;5081118;28;20285;-61
2022/06/05 08:36:39;;;;;;;6.25;5.85;;;;;;;;;;5098921;28;20308;-61
2022/06/05 08:41:57;;;;;;;6.05;5.65;;;;;;;;;;5091192;28;20263;-61
2022/06/05 08:44:39;;;;;;;7.03;6.32;;;;;;;;;;5084739;28;20233;-61
2022/06/05 08:47:09;;;;;;;7.25;6.55;;;;;;;;;;5087499;28;20719;-61
2022/06/05 08:49:40;;;;;;;6.50;6.07;;;;;;;;;;5083792;28;20213;-61
2022/06/05 08:52:13;;;;;;;6.68;6.18;;;;;;;;;;5095304;28;20217;-61
2022/06/05 08:54:42;;;;;;;6.97;6.50;;;;;;;;;;5102551;28;20221;-61
2022/06/05 08:57:13;;;;;;;6.90;6.38;;;;;;;;;;5094729;28;20206;-62
2022/06/05 08:59:45;;;;;;;7.47;6.75;;;;;;;;;;5096182;28;20213;-61
2022/06/05 09:02:16;;;;;;;6.57;6.18;;;;;;;;;;5095257;28;20210;-61
2022/06/05 09:04:47;;;;;;;6.72;6.22;;;;;;;;;;5088909;28;20225;-62
2022/06/05 09:07:16;;;;;;;6.63;6.13;;;;;;;;;;5086780;28;20202;-61
2022/06/05 09:09:45;;;;;;;7.03;6.43;;;;;;;;;;5088888;28;20218;-61
2022/06/05 09:12:16;;;;;;;6.65;6.15;;;;;;;;;;5107789;28;20202;-61
2022/06/05 09:14:47;;;;;;;7.47;6.80;;;;;;;;;;5087582;28;20672;-61
2022/06/05 09:17:16;;;;;;;7.32;6.72;;;;;;;;;;5086586;28;20198;-60
2022/06/05 09:19:43;;;;;;;7.07;6.43;;;;;;;;;;5093334;28;20214;-61
2022/06/05 09:22:16;;;;;;;6.88;6.38;;;;;;;;;;5084674;28;20206;-61
2022/06/05 09:25:00;;;;;;;6.50;6.00;;;;;;;;;;5094897;28;20315;-61
2022/06/05 09:27:36;;;;;;;7.60;6.30;;;;;;;;;;5091076;28;20224;-61
2022/06/05 09:30:09;;;;;;;6.40;5.95;;;;;;;;;;5100855;28;20212;-62
2022/06/05 09:32:43;;;;;;;6.93;6.32;;;;;;;;;;5106291;28;20201;-61
2022/06/05 09:35:16;;;;;;;6.75;6.25;;;;;;;;;;5092585;28;20259;-61
2022/06/05 09:37:48;;;;;;;6.32;5.93;;;;;;;;;;5093134;28;20225;-61
2022/06/05 09:40:16;;;;;;;6.50;5.90;;;;;;;;;;5104438;28;20210;-61
2022/06/05 09:42:51;;;;;;;6.72;6.32;;;;;;;;;;5105829;28;20258;-61
2022/06/05 09:45:29;;;;;;;6.57;6.15;;;;;;;;;;5094525;28;20250;-61
2022/06/05 09:48:01;;;;;;;6.25;5.85;;;;;;;;;;5094601;28;20233;-61
2022/06/05 09:50:29;;;;;;;6.40;5.90;;;;;;;;;;5081489;28;20221;-61
2022/06/05 09:52:56;;;;;;;6.55;6.13;;;;;;;;;;5094775;28;20261;-61
2022/06/05 09:55:32;;;;;;;6.93;6.25;;;;;;;;;;5090712;28;20201;-61
2022/06/05 10:00:53;;;;;;;6.18;5.80;;;;;;;;;;5094986;28;20576;-64
2022/06/05 10:03:21;;;;;;;6.10;5.60;;;;;;;;;;5092327;28;20222;-58
2022/06/05 10:06:10;;;;;;;5.88;5.57;;;;;;;;;;5098621;28;20233;-57
2022/06/05 10:08:41;;;;;;;6.35;5.80;;;;;;;;;;5089547;28;20734;-59
2022/06/05 10:11:19;;;;;;;6.13;5.75;;;;;;;;;;5106210;28;20205;-60
2022/06/05 10:13:48;;;;;;;5.45;5.10;;;;;;;;;;5101067;28;20683;-60
2022/06/05 10:16:20;;;;;;;6.10;5.68;;;;;;;;;;5106500;28;20732;-60
2022/06/05 10:18:52;;;;;;;7.30;6.72;;;;;;;;;;5084218;28;20214;-60
2022/06/05 10:21:22;;;;;;;6.05;5.75;;;;;;;;;;5087313;28;20982;-59
2022/06/05 10:23:51;;;;;;;6.07;5.57;;;;;;;;;;5099425;28;20226;-58
2022/06/05 10:26:21;;;;;;;5.32;5.03;;;;;;;;;;5090809;28;20210;-58
2022/06/05 10:28:51;;;;;;;5.93;5.53;;;;;;;;;;5078295;28;20391;-58
2022/06/05 10:31:26;;;;;;;6.35;5.88;;;;;;;;;;5070513;28;20356;-58
2022/06/05 10:33:56;;;;;;;5.68;5.28;;;;;;;;;;5109759;28;20212;-59
2022/06/05 10:36:25;;;;;;;5.85;5.47;;;;;;;;;;5109241;28;20221;-59
2022/06/05 10:38:55;;;;;;;5.88;5.38;;;;;;;;;;5096610;28;20206;-60
2022/06/05 10:41:25;;;;;;;5.40;5.00;;;;;;;;;;5100345;28;20810;-58
2022/06/05 10:44:04;;;;;;;5.30;5.00;;;;;;;;;;5090616;28;20222;-58
2022/06/05 10:46:32;;;;;;;5.22;4.88;;;;;;;;;;5098414;28;20237;-58
2022/06/05 10:49:01;;;;;;;5.43;5.13;;;;;;;;;;5080463;28;20231;-58
2022/06/05 10:51:33;;;;;;;5.63;5.32;;;;;;;;;;5082318;28;20214;-58
2022/06/05 10:54:03;;;;;;;5.93;5.47;;;;;;;;;;5092006;28;20259;-58
2022/06/05 10:56:34;;;;;;;5.50;5.20;;;;;;;;;;5090357;28;20245;-59
2022/06/05 10:59:05;;;;;;;5.50;5.10;;;;;;;;;;5096684;28;20233;-59
2022/06/05 11:01:52;;;;;;;5.45;5.15;;;;;;;;;;5090669;28;20234;-60
2022/06/05 11:04:26;;;;;;;6.28;5.72;;;;;;;;;;5085276;28;20222;-60
2022/06/05 11:06:56;;;;;;;6.50;5.93;;;;;;;;;;5097173;28;20263;-62
2022/06/05 11:09:29;;;;;;;7.65;7.05;;;;;;;;;;5069830;28;20207;-61
2022/06/05 11:14:51;;;;;;;17.63;11.90;;;;;;;;;;5095428;28;20279;-60
2022/06/05 11:17:25;;;;;;;7.20;5.03;;;;;;;;;;5091841;28;20589;-60
2022/06/05 11:19:59;;;;;;;5.65;5.30;;;;;;;;;;5090944;28;20210;-61
2022/06/05 11:22:29;;;;;;;6.90;6.20;;;;;;;;;;5088168;28;20283;-61
2022/06/05 11:24:58;;;;;;;4.97;4.57;;;;;;;;;;5105259;28;20213;-62
2022/06/05 11:27:29;;;;;;;5.85;5.53;;;;;;;;;;5095702;28;20202;-60
2022/06/05 11:30:03;;;;;;;5.32;5.03;;;;;;;;;;5089817;28;20199;-60
2022/06/05 11:32:40;;;;;;;5.63;5.32;;;;;;;;;;5080874;28;20210;-60
2022/06/05 11:35:12;;;;;;;4.95;4.75;;;;;;;;;;5069461;28;20298;-60
2022/06/05 11:37:45;;;;;;;6.45;6.03;;;;;;;;;;5075029;28;20525;-58
2022/06/05 11:40:21;;;;;;;5.93;5.55;;;;;;;;;;5068976;28;20210;-58
2022/06/05 11:42:51;;;;;;;5.22;4.90;;;;;;;;;;5070678;28;20298;-61
2022/06/05 11:45:30;;;;;;;6.03;5.63;;;;;;;;;;5087281;28;20226;-59
2022/06/05 11:48:03;;;;;;;6.53;5.95;;;;;;;;;;5087516;28;20229;-59
2022/06/05 11:50:35;;;;;;;6.03;5.63;;;;;;;;;;5085190;28;20260;-58
2022/06/05 11:53:06;;;;;;;6.03;5.60;;;;;;;;;;5087906;28;20218;-58
2022/06/05 11:55:37;;;;;;;5.72;5.43;;;;;;;;;;5087551;28;20228;-59
2022/06/05 11:58:08;;;;;;;5.95;5.63;;;;;;;;;;5083708;28;20648;-59
2022/06/05 12:00:36;;;;;;;6.47;5.90;;;;;;;;;;5087952;28;20205;-59
2022/06/05 12:03:10;;;;;;;5.90;5.50;;;;;;;;;;5085141;28;20293;-59
2022/06/05 12:05:52;;;;;;;6.13;5.72;;;;;;;;;;5095736;28;20250;-60
2022/06/05 12:08:21;;;;;;;6.05;5.65;;;;;;;;;;5095426;28;20213;-60
2022/06/05 12:10:55;;;;;;;6.20;5.90;;;;;;;;;;5089878;28;20209;-60
2022/06/05 12:13:30;;;;;;;6.25;5.85;;;;;;;;;;5087403;28;20206;-60
2022/06/05 12:15:59;;;;;;;6.45;6.05;;;;;;;;;;5096743;28;20580;-59
2022/06/05 12:18:29;;;;;;;6.22;5.82;;;;;;;;;;5076117;28;20221;-60
2022/06/05 12:20:58;;;;;;;6.53;6.07;;;;;;;;;;5085839;28;20202;-60
2022/06/05 12:23:28;;;;;;;5.60;5.32;;;;;;;;;;5105175;28;20213;-60
2022/06/05 12:25:56;;;;;;;6.47;6.07;;;;;;;;;;5093323;28;20573;-59
2022/06/05 12:28:27;;;;;;;6.43;6.03;;;;;;;;;;5092389;28;20213;-59
2022/06/05 12:30:56;;;;;;;6.55;6.15;;;;;;;;;;5090056;28;20206;-59
2022/06/05 12:33:26;;;;;;;7.35;6.32;;;;;;;;;;5085881;28;20214;-63
2022/06/05 12:35:56;;;;;;;7.03;6.53;;;;;;;;;;5092696;28;20221;-63
2022/06/05 12:38:32;;;;;;;6.72;6.25;;;;;;;;;;5094504;28;20205;-63
2022/06/05 12:41:03;;;;;;;6.55;6.15;;;;;;;;;;5078751;28;20210;-62
2022/06/05 12:43:32;;;;;;;7.25;6.72;;;;;;;;;;5084156;28;20210;-62
2022/06/05 12:46:01;;;;;;;5.53;5.22;;;;;;;;;;5081332;28;20885;-63
2022/06/05 12:48:30;;;;;;;7.70;7.13;;;;;;;;;;5078907;28;20230;-62
2022/06/05 12:51:00;;;;;;;6.50;5.88;;;;;;;;;;5085280;28;20213;-62
2022/06/05 12:53:31;;;;;;;7.85;7.15;;;;;;;;;;5084880;28;20564;-62
2022/06/05 12:56:00;;;;;;;6.68;6.18;;;;;;;;;;5087023;28;20214;-62
2022/06/05 12:58:30;;;;;;;7.07;6.60;;;;;;;;;;5089541;28;20210;-62
2022/06/05 13:01:00;;;;;;;7.53;6.93;;;;;;;;;;5094055;28;20209;-62
2022/06/05 13:03:30;;;;;;;6.50;6.10;;;;;;;;;;5089500;28;20211;-63
2022/06/05 13:06:02;;;;;;;6.82;6.32;;;;;;;;;;5083948;28;20230;-62
2022/06/05 13:08:32;;;;;;;7.15;6.53;;;;;;;;;;5083950;28;20214;-62
2022/06/05 13:11:05;;;;;;;7.97;6.55;;;;;;;;;;5065812;28;20211;-63
2022/06/05 13:13:37;;;;;;;7.15;6.63;;;;;;;;;;5063852;28;20214;-63
2022/06/05 13:16:06;;;;;;;6.72;6.32;;;;;;;;;;5063707;28;20203;-63
2022/06/05 13:18:39;;;;;;;6.57;6.18;;;;;;;;;;5078074;28;20206;-63
2022/06/05 13:21:15;;;;;;;7.35;6.70;;;;;;;;;;5081930;28;20218;-63
2022/06/05 13:23:44;;;;;;;7.05;6.45;;;;;;;;;;5079855;28;20265;-63
2022/06/05 13:26:15;;;;;;;6.72;6.30;;;;;;;;;;5101257;28;20599;-63
2022/06/05 13:28:46;;;;;;;6.80;6.40;;;;;;;;;;5091059;28;20221;-63
2022/06/05 13:31:21;;;;;;;6.47;6.07;;;;;;;;;;5068947;28;20207;-63
2022/06/05 13:33:50;;;;;;;6.78;6.30;;;;;;;;;;5065598;28;20295;-63
2022/06/05 13:36:25;;;;;;;6.50;6.10;;;;;;;;;;5083270;28;20233;-64
2022/06/05 13:38:58;;;;;;;7.25;6.50;;;;;;;;;;5064655;28;20218;-58
2022/06/05 13:41:37;;;;;;;6.75;6.15;;;;;;;;;;5062215;28;20619;-60
2022/06/05 13:44:05;;;;;;;6.68;6.15;;;;;;;;;;5063666;28;20302;-59
2022/06/05 13:46:35;;;;;;;6.43;5.82;;;;;;;;;;5063992;28;20226;-58
2022/06/05 13:49:09;;;;;;;6.85;6.30;;;;;;;;;;5063626;28;20242;-59
2022/06/05 13:51:41;;;;;;;7.43;6.82;;;;;;;;;;5081462;28;20946;-58
2022/06/05 13:54:16;;;;;;;6.20;5.80;;;;;;;;;;5068041;28;20207;-59
2022/06/05 13:56:49;;;;;;;7.55;6.85;;;;;;;;;;5085077;28;20206;-59
2022/06/05 13:59:21;;;;;;;6.80;6.30;;;;;;;;;;5089358;28;20209;-59
2022/06/05 14:02:09;;;;;;;6.78;6.28;;;;;;;;;;5104501;28;20885;-59
2022/06/05 14:04:54;;;;;;;7.15;6.55;;;;;;;;;;5092540;28;20712;-59
2022/06/05 14:07:23;;;;;;;6.78;6.30;;;;;;;;;;5067708;28;20302;-59
2022/06/05 14:09:51;;;;;;;6.38;5.97;;;;;;;;;;5083546;28;20209;-56
2022/06/05 14:12:20;;;;;;;6.88;6.38;;;;;;;;;;5087752;28;20297;-57
2022/06/05 14:14:48;;;;;;;6.55;6.13;;;;;;;;;;5073283;28;20195;-57
2022/06/05 14:17:20;;;;;;;7.53;6.85;;;;;;;;;;5067349;28;20207;-57
2022/06/05 14:19:53;;;;;;;7.05;6.55;;;;;;;;;;5081804;28;20218;-58
2022/06/05 14:22:22;;;;;;;7.07;6.38;;;;;;;;;;5084089;28;20206;-57
2022/06/05 14:24:52;;;;;;;9.25;6.40;;;;;;;;;;5080237;28;20669;-57
2022/06/05 14:27:29;;;;;;;6.47;6.07;;;;;;;;;;5085219;28;20565;-57
2022/06/05 14:29:57;;;;;;;6.38;6.07;;;;;;;;;;5085770;28;20213;-58
2022/06/05 14:32:26;;;;;;;7.03;6.53;;;;;;;;;;5101645;28;20299;-57
2022/06/05 14:35:08;;;;;;;7.05;6.55;;;;;;;;;;5090671;28;20208;-60
2022/06/05 14:37:37;;;;;;;6.82;6.43;;;;;;;;;;5097523;28;20739;-57
2022/06/05 14:40:07;;;;;;;8.98;8.15;;;;;;;;;;5095382;28;20335;-57
2022/06/05 14:42:38;;;;;;;7.03;6.63;;;;;;;;;;5089409;28;20211;-57
2022/06/05 14:45:08;;;;;;;8.27;7.30;;;;;;;;;;5082643;28;20222;-57
2022/06/05 14:47:41;;;;;;;6.82;6.32;;;;;;;;;;5089274;28;20925;-57
2022/06/05 14:50:11;;;;;;;7.32;6.80;;;;;;;;;;5090089;28;20201;-62
2022/06/05 14:52:41;;;;;;;7.15;6.53;;;;;;;;;;5089632;28;20202;-59
2022/06/05 14:58:04;;;;;;;7.93;7.32;;;;;;;;;;5101521;28;20292;-59
2022/06/05 15:00:34;;;;;;;7.97;7.38;;;;;;;;;;5088195;28;20210;-59
2022/06/05 15:03:14;;;;;;;7.53;6.82;;;;;;;;;;5086484;28;20225;-59
2022/06/05 15:05:43;;;;;;;9.38;7.80;;;;;;;;;;5084935;28;20226;-59
2022/06/05 15:08:14;;;;;;;8.40;7.60;;;;;;;;;;5086404;28;20215;-59
2022/06/05 15:10:45;;;;;;;9.13;8.25;;;;;;;;;;5087491;28;20699;-59
2022/06/05 15:13:17;;;;;;;8.93;8.02;;;;;;;;;;5085710;28;20206;-60
2022/06/05 15:15:51;;;;;;;7.05;6.50;;;;;;;;;;5074722;28;20674;-61